createdAt,value
2018-08-18T00:01:37.414Z,9.18
2018-08-18T00:04:24.966Z,7.70
2018-08-18T00:06:54.294Z,7.80
2018-08-18T00:09:23.773Z,7.78
2018-08-18T00:11:53.059Z,7.62
2018-08-18T00:14:22.310Z,8.45
2018-08-18T00:16:51.564Z,7.55
2018-08-18T00:19:24.081Z,7.08
2018-08-18T00:21:53.313Z,7.53
2018-08-18T00:24:22.568Z,6.92
2018-08-18T00:26:51.817Z,11.35
2018-08-18T00:29:21.064Z,8.15
2018-08-18T00:31:50.285Z,7.62
2018-08-18T00:34:19.563Z,7.40
2018-08-18T00:36:48.820Z,7.40
2018-08-18T00:39:18.032Z,8.28
2018-08-18T00:41:47.276Z,7.58
2018-08-18T00:44:16.535Z,7.85
2018-08-18T00:46:45.781Z,8.90
2018-08-18T00:49:15.095Z,10.00
2018-08-18T00:51:44.339Z,10.18
2018-08-18T00:54:13.606Z,9.18
2018-08-18T00:56:43.262Z,11.22
2018-08-18T00:59:12.537Z,11.48
2018-08-18T01:01:41.928Z,11.45
2018-08-18T01:04:11.210Z,10.53
2018-08-18T01:06:41.534Z,10.85
2018-08-18T01:09:12.690Z,11.68
2018-08-18T01:11:41.999Z,10.25
2018-08-18T01:14:17.152Z,10.72
2018-08-18T01:16:52.614Z,11.57
2018-08-18T01:19:22.978Z,10.88
2018-08-18T01:21:58.197Z,10.63
2018-08-18T01:24:28.045Z,12.50
2018-08-18T01:26:57.681Z,11.38
2018-08-18T01:29:27.049Z,11.15
2018-08-18T01:31:56.277Z,10.35
2018-08-18T01:34:25.573Z,11.83
2018-08-18T01:36:54.913Z,13.03
2018-08-18T01:39:24.153Z,12.25
2018-08-18T01:41:53.400Z,11.73
2018-08-18T01:44:23.902Z,13.25
2018-08-18T01:46:54.795Z,12.55
2018-08-18T01:49:40.480Z,14.45
2018-08-18T01:52:16.398Z,14.13
2018-08-18T01:54:46.110Z,14.98
2018-08-18T01:57:17.888Z,11.68
2018-08-18T01:59:47.692Z,11.63
2018-08-18T02:02:26.833Z,12.33
2018-08-18T02:05:03.466Z,10.78
2018-08-18T02:07:33.747Z,11.18
2018-08-18T02:10:03.089Z,9.65
2018-08-18T02:12:32.325Z,8.88
2018-08-18T02:15:01.576Z,8.38
2018-08-18T02:17:32.735Z,8.68
2018-08-18T02:20:02.232Z,8.53
2018-08-18T02:22:32.174Z,7.35
2018-08-18T02:25:01.446Z,8.43
2018-08-18T02:27:30.676Z,7.20
2018-08-18T02:30:14.898Z,8.93
2018-08-18T02:32:44.148Z,7.50
2018-08-18T02:35:13.424Z,7.55
2018-08-18T02:37:42.662Z,7.83
2018-08-18T02:40:14.117Z,7.85
2018-08-18T02:42:43.367Z,8.28
2018-08-18T02:45:13.558Z,8.25
2018-08-18T02:47:43.112Z,8.20
2018-08-18T02:50:13.799Z,8.90
2018-08-18T02:52:43.040Z,7.87
2018-08-18T02:55:12.911Z,8.45
2018-08-18T02:57:43.787Z,7.80
2018-08-18T03:00:22.398Z,7.65
2018-08-18T03:03:00.414Z,8.25
2018-08-18T03:05:29.719Z,8.18
2018-08-18T03:07:59.036Z,7.95
2018-08-18T03:10:28.428Z,8.90
2018-08-18T03:12:59.990Z,8.60
2018-08-18T03:16:09.289Z,9.90
2018-08-18T03:18:49.750Z,8.68
2018-08-18T03:21:20.815Z,9.00
2018-08-18T03:24:07.345Z,7.87
2018-08-18T03:26:41.346Z,9.05
2018-08-18T03:29:11.024Z,9.45
2018-08-18T03:31:40.788Z,9.90
2018-08-18T03:34:10.587Z,8.98
2018-08-18T03:36:48.840Z,11.63
2018-08-18T03:39:25.226Z,11.60
2018-08-18T03:41:55.861Z,10.38
2018-08-18T03:44:25.073Z,9.73
2018-08-18T03:46:54.340Z,12.43
2018-08-18T03:49:23.703Z,15.95
2018-08-18T03:51:54.142Z,10.30
2018-08-18T03:54:23.371Z,9.90
2018-08-18T03:56:52.653Z,10.25
2018-08-18T03:59:21.869Z,10.35
2018-08-18T04:01:54.365Z,9.65
2018-08-18T04:04:24.663Z,10.82
2018-08-18T04:06:55.366Z,10.68
2018-08-18T04:09:26.081Z,11.10
2018-08-18T04:11:56.757Z,11.05
2018-08-18T04:14:31.410Z,12.43
2018-08-18T04:17:00.749Z,10.40
2018-08-18T04:19:29.961Z,10.50
2018-08-18T04:21:59.233Z,11.48
2018-08-18T04:24:34.423Z,11.33
2018-08-18T04:27:03.665Z,11.43
2018-08-18T04:29:32.948Z,10.80
2018-08-18T04:32:02.670Z,11.22
2018-08-18T04:34:31.952Z,11.83
2018-08-18T04:37:02.442Z,13.00
2018-08-18T04:39:31.835Z,11.10
2018-08-18T04:42:01.097Z,12.00
2018-08-18T04:44:30.378Z,11.68
2018-08-18T04:46:59.635Z,11.48
2018-08-18T04:49:29.019Z,11.22
2018-08-18T04:51:58.231Z,12.13
2018-08-18T04:54:27.513Z,10.58
2018-08-18T04:56:56.772Z,11.22
2018-08-18T04:59:26.204Z,10.95
2018-08-18T05:01:55.417Z,10.28
2018-08-18T05:04:24.657Z,10.40
2018-08-18T05:06:53.893Z,11.05
2018-08-18T05:09:23.108Z,11.60
2018-08-18T05:11:52.302Z,11.08
2018-08-18T05:14:21.521Z,10.35
2018-08-18T05:16:50.766Z,10.63
2018-08-18T05:19:20.043Z,10.85
2018-08-18T05:21:49.297Z,10.90
2018-08-18T05:24:26.961Z,10.48
2018-08-18T05:26:56.471Z,10.13
2018-08-18T05:29:25.753Z,10.10
2018-08-18T05:31:55.018Z,10.20
2018-08-18T05:34:24.320Z,9.95
2018-08-18T05:36:53.617Z,9.93
2018-08-18T05:39:22.878Z,9.98
2018-08-18T05:41:52.189Z,9.30
2018-08-18T05:44:21.421Z,9.80
2018-08-18T05:46:50.662Z,9.55
2018-08-18T05:49:19.910Z,10.68
2018-08-18T05:51:50.693Z,8.60
2018-08-18T05:54:25.403Z,11.30
2018-08-18T05:56:55.704Z,10.93
2018-08-18T05:59:24.965Z,10.32
2018-08-18T06:01:54.224Z,11.78
2018-08-18T06:04:23.463Z,9.45
2018-08-18T06:06:53.338Z,10.48
2018-08-18T06:09:23.352Z,9.25
2018-08-18T06:11:53.456Z,8.95
2018-08-18T06:14:22.690Z,8.83
2018-08-18T06:16:52.654Z,8.68
2018-08-18T06:19:21.892Z,10.03
2018-08-18T06:21:51.124Z,9.33
2018-08-18T06:24:20.481Z,8.83
2018-08-18T06:26:49.706Z,9.98
2018-08-18T06:29:18.952Z,8.70
2018-08-18T06:32:00.749Z,9.05
2018-08-18T06:34:31.844Z,8.30
2018-08-18T06:37:02.197Z,8.45
2018-08-18T06:39:50.872Z,8.55
2018-08-18T06:42:46.280Z,8.95
2018-08-18T06:45:18.179Z,8.70
2018-08-18T06:47:47.463Z,10.10
2018-08-18T06:50:17.714Z,10.78
2018-08-18T06:52:47.536Z,11.53
2018-08-18T06:55:18.931Z,11.48
2018-08-18T06:57:51.680Z,11.78
2018-08-18T07:00:25.362Z,10.85
2018-08-18T07:02:54.748Z,11.08
2018-08-18T07:05:23.989Z,11.48
2018-08-18T07:07:53.219Z,14.58
2018-08-18T07:10:35.565Z,11.73
2018-08-18T07:13:08.250Z,10.75
2018-08-18T07:15:39.738Z,12.45
2018-08-18T07:18:10.956Z,12.70
2018-08-18T07:20:40.258Z,18.95
2018-08-18T07:23:09.640Z,12.80
2018-08-18T07:25:48.730Z,13.10
2018-08-18T07:28:22.288Z,12.53
2018-08-18T07:30:51.601Z,13.28
2018-08-18T07:33:20.832Z,12.13
2018-08-18T07:35:50.224Z,12.50
2018-08-18T07:38:19.482Z,13.72
2018-08-18T07:40:50.973Z,13.03
2018-08-18T07:43:23.409Z,15.20
2018-08-18T07:45:54.886Z,13.10
2018-08-18T07:48:25.078Z,15.48
2018-08-18T07:50:54.329Z,12.85
2018-08-18T07:53:23.603Z,13.43
2018-08-18T07:55:52.882Z,12.47
2018-08-18T07:58:24.637Z,11.73
2018-08-18T08:00:56.942Z,13.20
2018-08-18T08:03:26.300Z,14.07
2018-08-18T08:05:55.780Z,12.63
2018-08-18T08:08:25.591Z,12.13
2018-08-18T08:10:59.809Z,12.78
2018-08-18T08:13:29.109Z,11.88
2018-08-18T08:15:58.451Z,11.78
2018-08-18T08:18:27.766Z,11.30
2018-08-18T08:20:57.112Z,12.58
2018-08-18T08:23:26.371Z,11.22
2018-08-18T08:25:55.737Z,10.50
2018-08-18T08:28:25.706Z,10.78
2018-08-18T08:30:55.118Z,11.03
2018-08-18T08:33:36.401Z,10.32
2018-08-18T08:36:13.445Z,8.93
2018-08-18T08:39:00.041Z,8.60
2018-08-18T08:41:31.797Z,8.95
2018-08-18T08:44:01.357Z,13.55
2018-08-18T08:46:30.654Z,10.80
2018-08-18T08:49:01.568Z,10.48
2018-08-18T08:51:30.863Z,9.75
2018-08-18T08:54:00.666Z,8.60
2018-08-18T08:56:45.444Z,8.30
2018-08-18T08:59:14.741Z,10.45
2018-08-18T09:01:44.016Z,9.28
2018-08-18T09:04:13.269Z,8.33
2018-08-18T09:06:48.685Z,8.35
2018-08-18T09:09:17.913Z,8.40
2018-08-18T09:11:47.177Z,7.80
2018-08-18T09:14:16.404Z,7.97
2018-08-18T09:16:45.688Z,8.80
2018-08-18T09:19:14.924Z,8.55
2018-08-18T09:21:49.390Z,12.20
2018-08-18T09:24:18.913Z,10.10
2018-08-18T09:27:09.355Z,7.97
2018-08-18T09:29:44.870Z,8.73
2018-08-18T09:32:14.534Z,7.70
2018-08-18T09:34:50.670Z,7.45
2018-08-18T09:37:20.625Z,8.28
2018-08-18T09:39:49.860Z,9.13
2018-08-18T09:42:20.055Z,9.53
2018-08-18T09:44:50.777Z,10.10
2018-08-18T09:47:20.060Z,9.15
2018-08-18T09:49:49.309Z,8.33
2018-08-18T09:52:20.078Z,8.00
2018-08-18T09:54:49.356Z,10.38
2018-08-18T09:57:18.611Z,8.00
2018-08-18T09:59:47.887Z,7.95
2018-08-18T10:02:17.108Z,8.75
2018-08-18T10:04:46.351Z,7.55
2018-08-18T10:07:15.635Z,6.87
2018-08-18T10:09:44.869Z,8.45
2018-08-18T10:12:14.185Z,7.53
2018-08-18T10:14:43.430Z,9.58
2018-08-18T10:17:12.733Z,7.12
2018-08-18T10:19:41.968Z,8.00
2018-08-18T10:22:11.224Z,8.45
2018-08-18T10:24:40.783Z,8.60
2018-08-18T10:27:10.136Z,8.18
2018-08-18T10:29:45.712Z,7.58
2018-08-18T10:32:15.030Z,7.58
2018-08-18T10:34:44.281Z,6.87
2018-08-18T10:37:14.888Z,6.25
2018-08-18T10:39:44.097Z,7.28
2018-08-18T10:42:16.045Z,7.60
2018-08-18T10:44:51.512Z,8.18
2018-08-18T10:47:23.076Z,7.35
2018-08-18T10:50:09.676Z,8.53
2018-08-18T10:52:56.204Z,6.08
2018-08-18T10:55:25.425Z,6.62
2018-08-18T10:58:00.724Z,6.22
2018-08-18T11:00:31.225Z,6.17
2018-08-18T11:03:02.171Z,6.20
2018-08-18T11:05:31.795Z,7.08
2018-08-18T11:08:08.838Z,6.65
2018-08-18T11:10:40.333Z,5.75
2018-08-18T11:13:09.672Z,6.62
2018-08-18T11:15:38.897Z,7.05
2018-08-18T11:18:08.286Z,6.78
2018-08-18T11:20:37.550Z,7.65
2018-08-18T11:23:10.816Z,9.28
2018-08-18T11:25:45.697Z,7.87
2018-08-18T11:28:15.851Z,9.40
2018-08-18T11:30:45.170Z,8.50
2018-08-18T11:33:31.221Z,8.75
2018-08-18T11:36:00.575Z,11.53
2018-08-18T11:38:29.868Z,12.78
2018-08-18T11:40:59.114Z,12.23
2018-08-18T11:43:28.959Z,11.80
2018-08-18T11:45:58.196Z,11.93
2018-08-18T11:48:27.653Z,11.95
2018-08-18T11:50:57.466Z,10.82
2018-08-18T11:53:26.823Z,12.53
2018-08-18T11:55:56.073Z,15.80
2018-08-18T11:58:25.698Z,15.40
2018-08-18T12:00:58.140Z,15.53
2018-08-18T12:03:31.774Z,16.60
2018-08-18T12:06:03.380Z,16.30
2018-08-18T12:08:34.377Z,16.10
2018-08-18T12:11:05.880Z,13.85
2018-08-18T12:13:41.060Z,13.65
2018-08-18T12:16:13.324Z,13.65
2018-08-18T12:18:44.218Z,15.03
2018-08-18T12:21:13.660Z,14.45
2018-08-18T12:23:46.833Z,14.35
2018-08-18T12:26:20.503Z,13.08
2018-08-18T12:28:55.097Z,14.65
2018-08-18T12:31:27.466Z,13.15
2018-08-18T12:33:56.901Z,13.58
2018-08-18T12:36:26.478Z,12.82
2018-08-18T12:38:57.140Z,14.65
2018-08-18T12:41:26.541Z,15.48
2018-08-18T12:43:57.200Z,13.83
2018-08-18T12:46:35.747Z,13.45
2018-08-18T12:49:06.583Z,11.68
2018-08-18T12:51:35.811Z,10.95
2018-08-18T12:54:10.666Z,10.82
2018-08-18T12:56:39.906Z,10.45
2018-08-18T12:59:09.703Z,10.20
2018-08-18T13:01:43.669Z,12.20
2018-08-18T13:04:14.391Z,12.10
2018-08-18T13:06:51.098Z,10.18
2018-08-18T13:09:21.668Z,10.55
2018-08-18T13:11:52.170Z,9.40
2018-08-18T13:14:30.157Z,10.45
2018-08-18T13:16:59.402Z,10.98
2018-08-18T13:19:32.750Z,10.60
2018-08-18T13:22:02.013Z,10.68
2018-08-18T13:24:32.319Z,9.63
2018-08-18T13:27:02.628Z,10.28
2018-08-18T13:29:32.637Z,8.65
2018-08-18T13:32:01.927Z,9.53
2018-08-18T13:34:31.209Z,10.48
2018-08-18T13:37:00.433Z,10.32
2018-08-18T13:39:29.765Z,9.58
2018-08-18T13:41:59.495Z,9.73
2018-08-18T13:44:43.211Z,9.73
2018-08-18T13:47:12.481Z,9.70
2018-08-18T13:49:41.741Z,10.40
2018-08-18T13:52:11.083Z,11.08
2018-08-18T13:54:47.373Z,11.35
2018-08-18T13:57:20.743Z,11.88
2018-08-18T13:59:50.030Z,11.33
2018-08-18T14:02:19.261Z,12.37
2018-08-18T14:04:48.564Z,10.88
2018-08-18T14:07:17.900Z,12.07
2018-08-18T14:09:52.505Z,10.78
2018-08-18T14:12:21.737Z,10.93
2018-08-18T14:14:51.004Z,11.63
2018-08-18T14:17:22.155Z,11.12
2018-08-18T14:19:51.958Z,12.23
2018-08-18T14:22:23.042Z,12.82
2018-08-18T14:24:52.301Z,11.60
2018-08-18T14:27:23.074Z,12.88
2018-08-18T14:29:52.314Z,13.22
2018-08-18T14:32:27.579Z,12.80
2018-08-18T14:35:08.041Z,12.07
2018-08-18T14:37:40.414Z,12.03
2018-08-18T14:40:13.586Z,11.22
2018-08-18T14:42:42.833Z,11.88
2018-08-18T14:45:14.736Z,10.95
2018-08-18T14:47:44.416Z,12.20
2018-08-18T14:50:18.918Z,10.95
2018-08-18T14:52:48.176Z,11.93
2018-08-18T14:55:17.689Z,11.40
2018-08-18T14:58:02.410Z,12.18
2018-08-18T15:00:32.183Z,11.22
2018-08-18T15:03:01.521Z,12.00
2018-08-18T15:05:30.925Z,11.53
2018-08-18T15:08:00.424Z,11.43
2018-08-18T15:10:39.670Z,11.12
2018-08-18T15:13:09.706Z,11.20
2018-08-18T15:15:39.191Z,11.55
2018-08-18T15:18:11.542Z,12.60
2018-08-18T15:20:41.565Z,10.93
2018-08-18T15:23:11.646Z,11.55
2018-08-18T15:25:41.805Z,11.65
2018-08-18T15:28:12.229Z,11.30
2018-08-18T15:30:43.801Z,11.45
2018-08-18T15:33:16.898Z,10.72
2018-08-18T15:35:46.208Z,11.20
2018-08-18T15:38:15.505Z,10.93
2018-08-18T15:40:45.032Z,11.80
2018-08-18T15:43:14.254Z,15.20
2018-08-18T15:46:02.732Z,12.20
2018-08-18T15:48:32.384Z,12.00
2018-08-18T15:51:01.663Z,11.08
2018-08-18T15:53:59.880Z,13.28
2018-08-18T15:56:30.275Z,12.25
2018-08-18T15:59:00.320Z,12.37
2018-08-18T16:01:30.965Z,12.98
2018-08-18T16:04:01.923Z,12.10
2018-08-18T16:06:31.416Z,11.50
2018-08-18T16:09:00.670Z,12.30
2018-08-18T16:11:30.002Z,11.78
2018-08-18T16:13:59.357Z,12.23
2018-08-18T16:16:28.661Z,11.88
2018-08-18T16:19:03.933Z,11.83
2018-08-18T16:21:34.637Z,11.68
2018-08-18T16:24:03.951Z,11.88
2018-08-18T16:26:33.404Z,11.83
2018-08-18T16:29:02.692Z,12.18
2018-08-18T16:31:31.953Z,12.37
2018-08-18T16:34:01.225Z,13.55
2018-08-18T16:36:35.679Z,15.60
2018-08-18T16:39:05.200Z,12.80
2018-08-18T16:41:34.454Z,13.98
2018-08-18T16:44:03.714Z,12.90
2018-08-18T16:46:33.085Z,14.03
2018-08-18T16:49:02.359Z,12.65
2018-08-18T16:51:31.671Z,12.80
2018-08-18T16:54:33.309Z,12.75
2018-08-18T16:57:02.589Z,12.50
2018-08-18T16:59:35.214Z,12.80
2018-08-18T17:02:05.326Z,12.82
2018-08-18T17:04:35.273Z,13.75
2018-08-18T17:07:11.564Z,12.15
2018-08-18T17:09:42.229Z,13.28
2018-08-18T17:12:21.124Z,15.55
2018-08-18T17:14:50.421Z,13.00
2018-08-18T17:17:22.536Z,15.10
2018-08-18T17:19:51.850Z,13.35
2018-08-18T17:22:21.189Z,13.70
2018-08-18T17:24:50.585Z,13.90
2018-08-18T17:27:19.863Z,12.93
2018-08-18T17:29:50.900Z,13.53
2018-08-18T17:32:20.206Z,13.15
2018-08-18T17:34:49.487Z,13.10
2018-08-18T17:37:18.765Z,13.13
2018-08-18T17:39:48.161Z,14.33
2018-08-18T17:42:17.505Z,13.08
2018-08-18T17:44:46.796Z,13.03
2018-08-18T17:47:16.063Z,14.03
2018-08-18T17:49:50.605Z,14.23
2018-08-18T17:52:19.891Z,14.55
2018-08-18T17:55:07.583Z,14.50
2018-08-18T17:57:37.876Z,15.18
2018-08-18T18:00:17.296Z,14.43
2018-08-18T18:02:53.041Z,15.18
2018-08-18T18:05:24.454Z,32.80
2018-08-18T18:07:59.615Z,16.10
2018-08-18T18:10:35.435Z,17.27
2018-08-18T18:13:18.595Z,17.27
2018-08-18T18:15:48.473Z,14.93
2018-08-18T18:18:19.307Z,16.50
2018-08-18T18:20:49.665Z,14.95
2018-08-18T18:23:19.396Z,14.45
2018-08-18T18:25:48.625Z,14.63
2018-08-18T18:28:17.951Z,14.38
2018-08-18T18:30:47.205Z,14.47
2018-08-18T18:33:16.549Z,14.75
2018-08-18T18:35:45.792Z,13.68
2018-08-18T18:38:15.047Z,14.75
2018-08-18T18:40:45.374Z,14.85
2018-08-18T18:43:14.636Z,15.13
2018-08-18T18:45:43.918Z,14.05
2018-08-18T18:48:15.223Z,15.38
2018-08-18T18:50:46.406Z,15.18
2018-08-18T18:53:15.886Z,14.25
2018-08-18T18:55:50.719Z,15.68
2018-08-18T18:58:19.991Z,14.63
2018-08-18T19:00:55.877Z,15.30
2018-08-18T19:03:25.148Z,15.05
2018-08-18T19:05:54.427Z,15.55
2018-08-18T19:08:23.674Z,14.70
2018-08-18T19:10:52.902Z,16.17
2018-08-18T19:13:22.143Z,15.10
2018-08-18T19:15:51.435Z,15.38
2018-08-18T19:18:20.667Z,14.45
2018-08-18T19:20:49.900Z,15.58
2018-08-18T19:23:20.404Z,17.15
2018-08-18T19:25:50.861Z,17.20
2018-08-18T19:28:22.418Z,16.80
2018-08-18T19:30:51.729Z,18.77
2018-08-18T19:33:21.245Z,19.80
2018-08-18T19:35:52.904Z,19.90
2018-08-18T19:38:23.269Z,20.60
2018-08-18T19:40:55.950Z,19.45
2018-08-18T19:43:27.207Z,19.20
2018-08-18T19:45:57.051Z,18.45
2018-08-18T19:48:27.706Z,18.10
2018-08-18T19:51:03.633Z,18.37
2018-08-18T19:53:35.215Z,18.52
2018-08-18T19:56:08.539Z,18.30
2018-08-18T19:58:37.800Z,17.42
2018-08-18T20:01:07.260Z,18.17
2018-08-18T20:03:36.502Z,19.05
2018-08-18T20:06:09.848Z,17.75
2018-08-18T20:08:39.102Z,18.77
2018-08-18T20:11:08.385Z,17.57
2018-08-18T20:13:37.705Z,16.45
2018-08-18T20:16:07.292Z,17.92
2018-08-18T20:18:36.578Z,15.83
2018-08-18T20:21:05.855Z,16.25
2018-08-18T20:23:35.138Z,17.77
2018-08-18T20:26:04.380Z,17.20
2018-08-18T20:28:33.673Z,17.67
2018-08-18T20:31:03.056Z,16.77
2018-08-18T20:33:32.387Z,17.37
2018-08-18T20:36:01.664Z,16.65
2018-08-18T20:38:39.038Z,16.48
2018-08-18T20:41:08.260Z,16.15
2018-08-18T20:43:37.521Z,16.32
2018-08-18T20:46:06.877Z,15.80
2018-08-18T20:48:36.215Z,15.88
2018-08-18T20:51:05.368Z,16.35
2018-08-18T20:53:34.692Z,16.82
2018-08-18T20:56:04.067Z,15.72
2018-08-18T20:58:33.907Z,16.10
2018-08-18T21:01:03.536Z,16.70
2018-08-18T21:03:51.690Z,16.52
2018-08-18T21:06:20.960Z,15.78
2018-08-18T21:08:50.251Z,16.62
2018-08-18T21:11:19.584Z,16.90
2018-08-18T21:13:50.049Z,17.85
2018-08-18T21:16:20.170Z,18.35
2018-08-18T21:18:49.450Z,21.82
2018-08-18T21:21:35.493Z,30.75
2018-08-18T21:24:05.140Z,39.15
2018-08-18T21:26:34.514Z,40.92
2018-08-18T21:29:03.912Z,24.95
2018-08-18T21:31:33.171Z,24.77
2018-08-18T21:34:03.424Z,20.50
2018-08-18T21:36:33.220Z,17.37
2018-08-18T21:39:06.025Z,20.12
2018-08-18T21:41:37.809Z,22.13
2018-08-18T21:44:09.184Z,19.73
2018-08-18T21:46:38.933Z,19.52
2018-08-18T21:49:08.473Z,19.27
2018-08-18T21:51:37.766Z,20.20
2018-08-18T21:54:07.014Z,18.42
2018-08-18T21:56:38.589Z,18.75
2018-08-18T21:59:10.054Z,18.40
2018-08-18T22:01:39.353Z,17.92
2018-08-18T22:04:09.749Z,18.48
2018-08-18T22:06:39.025Z,18.42
2018-08-18T22:09:21.594Z,18.42
2018-08-18T22:11:50.982Z,18.37
2018-08-18T22:14:20.232Z,19.37
2018-08-18T22:16:54.610Z,17.57
2018-08-18T22:19:24.057Z,18.48
2018-08-18T22:21:53.376Z,19.80
2018-08-18T22:24:22.789Z,19.62
2018-08-18T22:26:52.085Z,18.75
2018-08-18T22:29:26.037Z,19.15
2018-08-18T22:31:55.330Z,19.35
2018-08-18T22:34:24.698Z,18.27
2018-08-18T22:37:01.738Z,18.37
2018-08-18T22:39:31.126Z,18.87
2018-08-18T22:42:00.351Z,19.52
2018-08-18T22:44:29.614Z,18.65
2018-08-18T22:46:58.876Z,18.90
2018-08-18T22:49:28.148Z,19.02
2018-08-18T22:51:57.426Z,19.82
2018-08-18T22:54:26.852Z,18.27
2018-08-18T22:57:01.536Z,19.98
2018-08-18T22:59:31.361Z,17.92
2018-08-18T23:02:00.689Z,18.27
2018-08-18T23:04:35.303Z,19.45
2018-08-18T23:07:05.737Z,18.42
2018-08-18T23:09:34.988Z,20.43
2018-08-18T23:12:06.568Z,18.75
2018-08-18T23:14:36.868Z,19.12
2018-08-18T23:17:07.788Z,18.65
2018-08-18T23:19:37.084Z,19.15
2018-08-18T23:22:06.332Z,17.37
2018-08-18T23:24:37.753Z,17.77
2018-08-18T23:27:06.981Z,18.50
2018-08-18T23:29:36.257Z,19.02
2018-08-18T23:32:16.517Z,18.32
2018-08-18T23:34:45.785Z,18.45
2018-08-18T23:37:19.994Z,19.07
2018-08-18T23:39:54.020Z,17.40
2018-08-18T23:42:25.031Z,18.40
2018-08-18T23:44:54.297Z,17.65
2018-08-18T23:47:23.561Z,18.92
2018-08-18T23:49:52.777Z,19.30
2018-08-18T23:52:22.025Z,18.02
2018-08-18T23:54:51.305Z,19.35
2018-08-18T23:57:20.545Z,20.00
2018-08-18T23:59:50.711Z,18.37
